createdAt,value
2022-08-30T00:02:05.295Z,101629.31
2022-08-30T00:04:31.842Z,101630.16
2022-08-30T00:06:58.405Z,101626.63
2022-08-30T00:09:25.107Z,101633.88
2022-08-30T00:11:52.173Z,101634.00
2022-08-30T00:14:20.412Z,101639.97
2022-08-30T00:16:47.132Z,101643.91
2022-08-30T00:19:13.870Z,101641.16
2022-08-30T00:21:40.805Z,101642.03
2022-08-30T00:24:07.463Z,101636.00
2022-08-30T00:26:34.215Z,101639.84
2022-08-30T00:29:00.762Z,101643.94
2022-08-30T00:31:27.450Z,101642.44
2022-08-30T00:33:54.004Z,101645.59
2022-08-30T00:36:21.281Z,101650.03
2022-08-30T00:38:47.898Z,101651.00
2022-08-30T00:41:14.516Z,101642.56
2022-08-30T00:43:41.094Z,101657.34
2022-08-30T00:46:08.813Z,101650.91
2022-08-30T00:48:40.879Z,101652.53
2022-08-30T00:51:10.315Z,101654.31
2022-08-30T00:53:42.192Z,101654.31
2022-08-30T00:56:10.205Z,101661.72
2022-08-30T00:58:40.311Z,101659.41
2022-08-30T01:01:08.493Z,101658.97
2022-08-30T01:03:37.144Z,101658.56
2022-08-30T01:06:05.841Z,101659.09
2022-08-30T01:08:32.458Z,101655.41
2022-08-30T01:11:00.127Z,101658.47
2022-08-30T01:13:28.222Z,101651.06
2022-08-30T01:15:55.861Z,101658.47
2022-08-30T01:18:23.425Z,101657.22
2022-08-30T01:21:01.493Z,101664.78
2022-08-30T01:23:29.602Z,101665.44
2022-08-30T01:25:57.266Z,101660.84
2022-08-30T01:28:26.499Z,101667.25
2022-08-30T01:30:54.237Z,101665.91
2022-08-30T01:33:22.310Z,101667.66
2022-08-30T01:36:04.771Z,101666.47
2022-08-30T01:38:36.853Z,101668.06
2022-08-30T01:41:22.946Z,101672.59
2022-08-30T01:43:51.557Z,101666.03
2022-08-30T01:46:21.249Z,101669.84
2022-08-30T01:48:53.836Z,101670.97
2022-08-30T01:51:22.276Z,101673.16
2022-08-30T01:53:49.186Z,101667.56
2022-08-30T01:56:16.319Z,101672.91
2022-08-30T01:58:43.349Z,101665.53
2022-08-30T02:01:13.892Z,101671.81
2022-08-30T02:03:43.340Z,101672.75
2022-08-30T02:06:16.446Z,101676.03
2022-08-30T02:08:44.376Z,101672.63
2022-08-30T02:11:12.206Z,101676.44
2022-08-30T02:13:40.441Z,101670.53
2022-08-30T02:16:09.414Z,101684.34
2022-08-30T02:18:36.682Z,101677.38
2022-08-30T02:21:03.445Z,101678.88
2022-08-30T02:23:31.205Z,101683.69
2022-08-30T02:25:58.804Z,101682.84
2022-08-30T02:28:26.001Z,101687.50
2022-08-30T02:30:52.990Z,101685.16
2022-08-30T02:33:19.674Z,101691.88
2022-08-30T02:35:46.340Z,101698.84
2022-08-30T02:38:13.698Z,101683.41
2022-08-30T02:40:40.860Z,101691.44
2022-08-30T02:43:07.676Z,101678.31
2022-08-30T02:45:34.384Z,101699.22
2022-08-30T02:48:00.958Z,101689.09
2022-08-30T02:50:27.565Z,101690.59
2022-08-30T02:52:54.355Z,101700.75
2022-08-30T02:55:22.370Z,101696.50
2022-08-30T02:57:49.023Z,101699.50
2022-08-30T03:00:19.989Z,101697.44
2022-08-30T03:02:46.926Z,101701.53
2022-08-30T03:05:15.307Z,101705.63
2022-08-30T03:07:42.674Z,101705.63
2022-08-30T03:10:09.978Z,101695.28
2022-08-30T03:12:36.862Z,101698.09
2022-08-30T03:15:05.556Z,101696.22
2022-08-30T03:17:32.186Z,101696.34
2022-08-30T03:20:00.531Z,101701.41
2022-08-30T03:22:27.141Z,101706.66
2022-08-30T03:24:53.717Z,101710.00
2022-08-30T03:27:20.580Z,101705.38
2022-08-30T03:29:47.204Z,101702.28
2022-08-30T03:32:13.821Z,101703.50
2022-08-30T03:34:40.805Z,101705.78
2022-08-30T03:37:07.426Z,101701.66
2022-08-30T03:39:34.431Z,101699.22
2022-08-30T03:42:01.220Z,101702.06
2022-08-30T03:44:29.603Z,101693.63
2022-08-30T03:46:56.160Z,101694.69
2022-08-30T03:49:22.780Z,101691.28
2022-08-30T03:51:49.411Z,101695.91
2022-08-30T03:54:16.374Z,101695.34
2022-08-30T03:56:43.316Z,101695.34
2022-08-30T03:59:10.371Z,101691.81
2022-08-30T04:01:37.043Z,101700.41
2022-08-30T04:04:04.375Z,101698.38
2022-08-30T04:06:31.083Z,101694.13
2022-08-30T04:08:57.664Z,101688.94
2022-08-30T04:11:24.278Z,101701.81
2022-08-30T04:13:51.996Z,101702.63
2022-08-30T04:16:19.745Z,101696.09
2022-08-30T04:18:46.487Z,101705.00
2022-08-30T04:21:14.225Z,101702.66
2022-08-30T04:23:40.946Z,101705.94
2022-08-30T04:26:07.703Z,101716.16
2022-08-30T04:28:35.336Z,101714.53
2022-08-30T04:31:12.110Z,101724.63
2022-08-30T04:33:39.620Z,101728.34
2022-08-30T04:36:08.543Z,101728.91
2022-08-30T04:38:37.074Z,101730.38
2022-08-30T04:41:11.387Z,101734.22
2022-08-30T04:43:39.540Z,101730.66
2022-08-30T04:46:08.412Z,101729.72
2022-08-30T04:48:36.800Z,101724.72
2022-08-30T04:51:08.057Z,101736.50
2022-08-30T04:53:35.741Z,101726.94
2022-08-30T04:56:11.030Z,101721.63
2022-08-30T04:58:37.948Z,101728.69
2022-08-30T05:01:05.082Z,101726.28
2022-08-30T05:03:31.767Z,101734.91
2022-08-30T05:05:58.441Z,101726.47
2022-08-30T05:08:25.173Z,101738.25
2022-08-30T05:10:52.794Z,101737.88
2022-08-30T05:13:21.397Z,101742.50
2022-08-30T05:16:04.129Z,101733.06
2022-08-30T05:18:30.946Z,101739.38
2022-08-30T05:21:06.547Z,101739.63
2022-08-30T05:23:33.189Z,101745.94
2022-08-30T05:26:02.417Z,101739.22
2022-08-30T05:28:29.069Z,101746.50
2022-08-30T05:30:55.611Z,101750.63
2022-08-30T05:33:22.213Z,101752.09
2022-08-30T05:35:48.786Z,101752.94
2022-08-30T05:38:15.461Z,101765.63
2022-08-30T05:40:43.222Z,101760.53
2022-08-30T05:43:11.391Z,101762.09
2022-08-30T05:45:38.128Z,101760.56
2022-08-30T05:48:05.570Z,101757.09
2022-08-30T05:50:34.056Z,101759.19
2022-08-30T05:53:01.568Z,101765.63
2022-08-30T05:55:28.146Z,101760.19
2022-08-30T05:57:54.719Z,101763.34
2022-08-30T06:00:21.597Z,101762.09
2022-08-30T06:02:48.222Z,101761.44
2022-08-30T06:05:14.938Z,101767.41
2022-08-30T06:07:43.576Z,101773.34
2022-08-30T06:10:12.438Z,101771.16
2022-08-30T06:12:39.300Z,101775.00
2022-08-30T06:15:06.604Z,101774.09
2022-08-30T06:17:33.250Z,101781.47
2022-08-30T06:19:59.954Z,101779.00
2022-08-30T06:22:26.597Z,101777.59
2022-08-30T06:24:57.514Z,101774.06
2022-08-30T06:27:24.735Z,101771.59
2022-08-30T06:29:54.452Z,101783.09
2022-08-30T06:32:21.105Z,101783.91
2022-08-30T06:34:48.469Z,101788.84
2022-08-30T06:37:29.267Z,101802.22
2022-08-30T06:39:57.684Z,101800.81
2022-08-30T06:42:24.612Z,101809.31
2022-08-30T06:44:51.450Z,101807.28
2022-08-30T06:47:18.247Z,101804.78
2022-08-30T06:49:44.794Z,101791.06
2022-08-30T06:52:12.029Z,101813.06
2022-08-30T06:54:38.844Z,101814.56
2022-08-30T06:57:05.456Z,101808.50
2022-08-30T06:59:32.637Z,101817.03
2022-08-30T07:01:59.359Z,101822.88
2022-08-30T07:04:26.491Z,101814.00
2022-08-30T07:06:53.353Z,101819.78
2022-08-30T07:09:22.833Z,101823.44
2022-08-30T07:11:49.543Z,101830.81
2022-08-30T07:14:16.197Z,101831.72
2022-08-30T07:16:44.497Z,101832.44
2022-08-30T07:19:20.343Z,101827.25
2022-08-30T07:21:49.286Z,101828.47
2022-08-30T07:24:16.359Z,101827.22
2022-08-30T07:26:47.334Z,101829.06
2022-08-30T07:29:14.095Z,101836.50
2022-08-30T07:31:40.777Z,101823.81
2022-08-30T07:34:08.342Z,101833.59
2022-08-30T07:36:37.107Z,101838.41
2022-08-30T07:39:05.853Z,101835.66
2022-08-30T07:41:35.952Z,101842.25
2022-08-30T07:44:02.922Z,101838.34
2022-08-30T07:46:30.180Z,101833.69
2022-08-30T07:48:58.764Z,101842.22
2022-08-30T07:51:27.446Z,101837.13
2022-08-30T07:53:55.630Z,101828.22
2022-08-30T07:56:22.865Z,101836.16
2022-08-30T07:58:49.986Z,101837.78
2022-08-30T08:01:18.187Z,101832.91
2022-08-30T08:03:46.736Z,101837.97
2022-08-30T08:06:15.279Z,101834.50
2022-08-30T08:08:42.951Z,101834.31
2022-08-30T08:11:16.242Z,101843.28
2022-08-30T08:13:48.991Z,101850.84
2022-08-30T08:16:24.247Z,101847.16
2022-08-30T08:18:52.523Z,101847.47
2022-08-30T08:21:19.663Z,101847.91
2022-08-30T08:23:47.155Z,101858.13
2022-08-30T08:26:13.825Z,101846.47
2022-08-30T08:28:40.939Z,101846.81
2022-08-30T08:31:19.399Z,101855.19
2022-08-30T08:33:50.075Z,101852.59
2022-08-30T08:36:18.612Z,101864.72
2022-08-30T08:38:45.499Z,101859.09
2022-08-30T08:41:33.859Z,101862.16
2022-08-30T08:44:00.871Z,101863.59
2022-08-30T08:46:45.470Z,101870.06
2022-08-30T08:49:14.874Z,101863.97
2022-08-30T08:52:00.031Z,101865.00
2022-08-30T08:54:56.428Z,101877.44
2022-08-30T08:57:29.283Z,101871.59
2022-08-30T08:59:56.069Z,101884.78
2022-08-30T09:02:30.094Z,101878.69
2022-08-30T09:05:01.125Z,101876.03
2022-08-30T09:07:32.942Z,101879.22
2022-08-30T09:10:00.861Z,101887.13
2022-08-30T09:12:29.159Z,101888.22
2022-08-30T09:15:04.370Z,101890.19
2022-08-30T09:17:53.713Z,101895.69
2022-08-30T09:20:33.157Z,101888.19
2022-08-30T09:23:20.869Z,101897.22
2022-08-30T09:25:59.686Z,101892.81
2022-08-30T09:28:46.635Z,101904.34
2022-08-30T09:31:28.887Z,101895.75
2022-08-30T09:33:56.899Z,101899.88
2022-08-30T09:36:27.508Z,101897.09
2022-08-30T09:39:01.173Z,101899.59
2022-08-30T09:41:42.446Z,101899.59
2022-08-30T09:44:21.673Z,101899.78
2022-08-30T09:46:54.574Z,101897.03
2022-08-30T09:49:31.735Z,101909.56
2022-08-30T09:52:12.666Z,101909.19
2022-08-30T09:54:52.606Z,101911.84
2022-08-30T09:57:35.118Z,101912.50
2022-08-30T10:00:25.415Z,101915.38
2022-08-30T10:03:02.286Z,101915.00
2022-08-30T10:05:50.338Z,101914.50
2022-08-30T10:08:43.815Z,101918.03
2022-08-30T10:11:37.910Z,101922.59
2022-08-30T10:14:27.408Z,101930.03
2022-08-30T10:17:00.387Z,101926.22
2022-08-30T10:19:40.705Z,101928.06
2022-08-30T10:22:29.723Z,101932.31
2022-08-30T10:25:07.390Z,101936.69
2022-08-30T10:27:45.124Z,101939.47
2022-08-30T10:30:14.721Z,101931.22
2022-08-30T10:32:48.371Z,101940.13
2022-08-30T10:35:29.090Z,101927.66
2022-08-30T10:38:32.336Z,101944.44
2022-08-30T10:41:19.591Z,101942.63
2022-08-30T10:44:00.374Z,101940.34
2022-08-30T10:46:33.294Z,101943.16
2022-08-30T10:49:04.058Z,101946.44
2022-08-30T10:51:36.401Z,101936.78
2022-08-30T10:54:24.047Z,101946.09
2022-08-30T10:56:52.319Z,101943.28
2022-08-30T10:59:20.676Z,101941.69
2022-08-30T11:02:07.897Z,101943.94
2022-08-30T11:04:34.601Z,101941.28
2022-08-30T11:07:20.445Z,101942.22
2022-08-30T11:10:20.366Z,101946.69
2022-08-30T11:13:03.413Z,101947.59
2022-08-30T11:15:57.510Z,101948.19
2022-08-30T11:18:26.443Z,101946.19
2022-08-30T11:20:56.593Z,101948.38
2022-08-30T11:23:34.807Z,101953.88
2022-08-30T11:26:03.820Z,101950.97
2022-08-30T11:28:39.888Z,101960.47
2022-08-30T11:31:29.711Z,101960.69
2022-08-30T11:36:46.452Z,101964.56
2022-08-30T11:40:01.927Z,101966.75
2022-08-30T11:45:26.715Z,101966.28
2022-08-30T11:48:05.738Z,101970.66
2022-08-30T11:50:52.737Z,101978.44
2022-08-30T11:53:32.475Z,101972.00
2022-08-30T11:56:44.183Z,101964.94
2022-08-30T11:59:22.235Z,101964.00
2022-08-30T12:01:52.133Z,101962.03
2022-08-30T12:04:41.681Z,101955.75
2022-08-30T12:07:10.067Z,101957.34
2022-08-30T12:09:37.726Z,101960.50
2022-08-30T12:12:32.660Z,101949.75
2022-08-30T12:15:00.508Z,101959.66
2022-08-30T12:17:50.797Z,101963.69
2022-08-30T12:20:29.250Z,101969.31
2022-08-30T12:22:57.748Z,101963.28
2022-08-30T12:25:25.809Z,101969.59
2022-08-30T12:28:09.228Z,101970.84
2022-08-30T12:30:39.788Z,101964.94
2022-08-30T12:33:12.303Z,101966.28
2022-08-30T12:35:43.451Z,101963.94
2022-08-30T12:38:26.769Z,101966.22
2022-08-30T12:40:58.339Z,101970.53
2022-08-30T12:43:40.573Z,101966.84
2022-08-30T12:46:15.403Z,101975.06
2022-08-30T12:48:43.676Z,101967.66
2022-08-30T12:51:28.821Z,101962.47
2022-08-30T12:54:07.384Z,101965.72
2022-08-30T12:56:54.489Z,101973.59
2022-08-30T12:59:54.024Z,101969.50
2022-08-30T13:02:47.125Z,101971.31
2022-08-30T13:05:32.407Z,101964.13
2022-08-30T13:08:25.304Z,101969.97
2022-08-30T13:11:29.323Z,101969.94
2022-08-30T13:14:18.481Z,101968.78
2022-08-30T13:16:46.696Z,101969.88
2022-08-30T13:19:20.826Z,101970.44
2022-08-30T13:21:52.946Z,101968.50
2022-08-30T13:24:23.490Z,101967.13
2022-08-30T13:26:52.954Z,101970.69
2022-08-30T13:29:25.479Z,101974.19
2022-08-30T13:31:53.090Z,101970.91
2022-08-30T13:34:22.635Z,101966.41
2022-08-30T13:36:57.912Z,101973.25
2022-08-30T13:39:25.662Z,101965.97
2022-08-30T13:41:53.503Z,101963.63
2022-08-30T13:44:20.511Z,101955.91
2022-08-30T13:46:55.304Z,101955.69
2022-08-30T13:49:44.972Z,101958.00
2022-08-30T13:52:21.358Z,101954.53
2022-08-30T13:54:56.226Z,101956.31
2022-08-30T14:00:19.297Z,101968.69
2022-08-30T14:02:54.200Z,101969.09
2022-08-30T14:05:50.516Z,101971.59
2022-08-30T14:11:12.805Z,101969.41
2022-08-30T14:16:31.594Z,101971.84
2022-08-30T14:19:00.375Z,101972.00
2022-08-30T14:21:27.917Z,101964.19
2022-08-30T14:23:57.622Z,101964.34
2022-08-30T14:26:32.909Z,101966.91
2022-08-30T14:29:04.814Z,101967.63
2022-08-30T14:31:32.779Z,101974.63
2022-08-30T14:34:02.005Z,101974.34
2022-08-30T14:36:31.108Z,101966.94
2022-08-30T14:38:58.539Z,101976.09
2022-08-30T14:41:25.823Z,101966.09
2022-08-30T14:43:52.868Z,101975.28
2022-08-30T14:46:19.953Z,101965.97
2022-08-30T14:48:47.987Z,101972.28
2022-08-30T14:51:19.732Z,101979.13
2022-08-30T14:53:47.159Z,101979.41
2022-08-30T14:56:18.505Z,101986.41
2022-08-30T14:58:49.194Z,101980.38
2022-08-30T15:01:16.404Z,101976.63
2022-08-30T15:03:43.687Z,101980.22
2022-08-30T15:06:12.128Z,101979.41
2022-08-30T15:08:39.354Z,101976.66
2022-08-30T15:11:11.571Z,101975.81
2022-08-30T15:13:39.780Z,101975.28
2022-08-30T15:16:12.308Z,101971.72
2022-08-30T15:18:39.502Z,101982.41
2022-08-30T15:21:09.643Z,101979.00
2022-08-30T15:23:37.248Z,101983.91
2022-08-30T15:26:06.804Z,101994.22
2022-08-30T15:28:35.313Z,101992.16
2022-08-30T15:31:06.293Z,101986.00
2022-08-30T15:33:36.370Z,101991.75
2022-08-30T15:36:05.452Z,101979.81
2022-08-30T15:38:33.845Z,101986.38
2022-08-30T15:41:04.564Z,101981.84
2022-08-30T15:43:32.088Z,101979.03
2022-08-30T15:46:37.686Z,101977.59
2022-08-30T15:49:07.600Z,101978.28
2022-08-30T15:51:41.800Z,101977.44
2022-08-30T15:54:15.645Z,101977.34
2022-08-30T15:56:43.971Z,101972.94
2022-08-30T15:59:12.153Z,101972.84
2022-08-30T16:01:39.012Z,101972.25
2022-08-30T16:04:06.276Z,101974.81
2022-08-30T16:06:37.417Z,101977.56
2022-08-30T16:09:06.290Z,101975.72
2022-08-30T16:11:33.936Z,101968.72
2022-08-30T16:14:01.489Z,101970.97
2022-08-30T16:16:28.613Z,101968.91
2022-08-30T16:18:55.650Z,101968.00
2022-08-30T16:21:29.126Z,101970.75
2022-08-30T16:23:58.626Z,101974.44
2022-08-30T16:26:25.975Z,101971.81
2022-08-30T16:28:54.452Z,101961.81
2022-08-30T16:31:22.328Z,101967.41
2022-08-30T16:33:52.447Z,101960.31
2022-08-30T16:36:20.228Z,101950.41
2022-08-30T16:38:48.785Z,101964.19
2022-08-30T16:41:21.376Z,101962.03
2022-08-30T16:43:49.743Z,101963.47
2022-08-30T16:46:23.609Z,101969.63
2022-08-30T16:48:57.606Z,101974.03
2022-08-30T16:51:26.912Z,101969.25
2022-08-30T16:53:58.873Z,101975.56
2022-08-30T16:56:27.171Z,101976.88
2022-08-30T16:59:03.144Z,101981.91
2022-08-30T17:01:34.981Z,101979.44
2022-08-30T17:04:02.966Z,101977.38
2022-08-30T17:06:30.533Z,101982.44
2022-08-30T17:08:59.310Z,101977.06
2022-08-30T17:11:27.189Z,101980.47
2022-08-30T17:13:54.400Z,101979.63
2022-08-30T17:16:28.166Z,101978.66
2022-08-30T17:19:01.180Z,101984.09
2022-08-30T17:21:29.818Z,101983.16
2022-08-30T17:24:01.236Z,101990.38
2022-08-30T17:26:34.558Z,101986.59
2022-08-30T17:29:01.503Z,101986.53
2022-08-30T17:31:31.262Z,101995.28
2022-08-30T17:34:03.306Z,101997.25
2022-08-30T17:36:31.289Z,101995.66
2022-08-30T17:38:58.146Z,102000.38
2022-08-30T17:41:24.892Z,101991.44
2022-08-30T17:43:51.508Z,101997.59
2022-08-30T17:46:18.887Z,101997.84
2022-08-30T17:48:46.567Z,101969.56
2022-08-30T17:51:13.373Z,101949.59
2022-08-30T17:53:40.099Z,101960.25
2022-08-30T17:56:10.036Z,101965.44
2022-08-30T17:58:37.005Z,101955.66
2022-08-30T18:01:14.506Z,101955.91
2022-08-30T18:03:42.340Z,101962.00
2022-08-30T18:06:13.148Z,101962.13
2022-08-30T18:08:40.215Z,101964.97
2022-08-30T18:11:07.484Z,101976.22
2022-08-30T18:13:34.825Z,101984.00
2022-08-30T18:16:03.069Z,101997.41
2022-08-30T18:18:30.467Z,101998.81
2022-08-30T18:20:57.349Z,102012.06
2022-08-30T18:23:24.414Z,102020.34
2022-08-30T18:26:01.410Z,102024.88
2022-08-30T18:28:29.984Z,102038.72
2022-08-30T18:30:57.504Z,102041.41
2022-08-30T18:33:25.915Z,102046.97
2022-08-30T18:35:53.789Z,102053.53
2022-08-30T18:38:23.743Z,102053.34
2022-08-30T18:40:51.911Z,102049.78
2022-08-30T18:43:18.880Z,102056.41
2022-08-30T18:45:51.833Z,102050.72
2022-08-30T18:48:19.638Z,102049.50
2022-08-30T18:50:48.004Z,102055.13
2022-08-30T18:53:15.834Z,102050.31
2022-08-30T18:55:57.479Z,102049.72
2022-08-30T18:58:24.679Z,102052.09
2022-08-30T19:00:51.704Z,102052.41
2022-08-30T19:03:19.157Z,102059.13
2022-08-30T19:05:46.555Z,102047.94
2022-08-30T19:08:13.962Z,102054.78
2022-08-30T19:10:44.606Z,102055.25
2022-08-30T19:13:12.503Z,102052.84
2022-08-30T19:15:39.623Z,102053.59
2022-08-30T19:18:16.773Z,102053.25
2022-08-30T19:20:46.009Z,102051.47
2022-08-30T19:23:14.873Z,102059.59
2022-08-30T19:25:44.891Z,102062.25
2022-08-30T19:28:13.834Z,102061.06
2022-08-30T19:30:41.633Z,102058.56
2022-08-30T19:33:11.729Z,102060.56
2022-08-30T19:35:39.178Z,102054.63
2022-08-30T19:38:06.591Z,102059.63
2022-08-30T19:40:33.653Z,102051.41
2022-08-30T19:43:00.928Z,102052.94
2022-08-30T19:45:28.300Z,102051.47
2022-08-30T19:47:57.959Z,102052.00
2022-08-30T19:50:25.430Z,102047.31
2022-08-30T19:52:54.648Z,102050.72
2022-08-30T19:55:28.636Z,102047.19
2022-08-30T19:57:58.529Z,102051.50
2022-08-30T20:00:25.563Z,102054.09
2022-08-30T20:02:52.957Z,102050.69
2022-08-30T20:05:21.568Z,102043.81
2022-08-30T20:07:48.442Z,102045.88
2022-08-30T20:10:20.160Z,102046.28
2022-08-30T20:12:49.883Z,102047.03
2022-08-30T20:15:18.571Z,102052.34
2022-08-30T20:18:06.088Z,102055.66
2022-08-30T20:20:36.203Z,102050.16
2022-08-30T20:23:04.534Z,102050.94
2022-08-30T20:25:31.828Z,102048.78
2022-08-30T20:27:59.500Z,102048.47
2022-08-30T20:30:26.318Z,102052.84
2022-08-30T20:32:54.761Z,102055.41
2022-08-30T20:35:23.856Z,102052.19
2022-08-30T20:37:51.400Z,102058.63
2022-08-30T20:40:20.694Z,102059.22
2022-08-30T20:42:48.049Z,102051.69
2022-08-30T20:45:17.757Z,102057.47
2022-08-30T20:47:45.233Z,102058.13
2022-08-30T20:50:15.388Z,102055.00
2022-08-30T20:52:42.088Z,102061.78
2022-08-30T20:55:10.120Z,102059.91
2022-08-30T20:57:37.520Z,102062.47
2022-08-30T21:00:11.213Z,102061.28
2022-08-30T21:02:46.286Z,102062.34
2022-08-30T21:05:15.612Z,102059.38
2022-08-30T21:07:44.654Z,102059.72
2022-08-30T21:10:12.836Z,102052.84
2022-08-30T21:12:40.006Z,102061.22
2022-08-30T21:15:27.333Z,102051.53
2022-08-30T21:17:54.379Z,102057.13
2022-08-30T21:20:21.262Z,102064.56
2022-08-30T21:22:47.973Z,102055.47
2022-08-30T21:25:14.732Z,102066.56
2022-08-30T21:27:43.884Z,102062.66
2022-08-30T21:30:12.740Z,102063.47
2022-08-30T21:32:40.108Z,102059.94
2022-08-30T21:35:26.815Z,102062.06
2022-08-30T21:37:54.137Z,102057.09
2022-08-30T21:40:21.450Z,102055.56
2022-08-30T21:42:48.276Z,102062.50
2022-08-30T21:45:15.604Z,102059.44
2022-08-30T21:47:42.647Z,102058.38
2022-08-30T21:50:09.940Z,102058.09
2022-08-30T21:52:36.560Z,102054.13
2022-08-30T21:55:04.472Z,102058.72
2022-08-30T21:57:31.369Z,102052.25
2022-08-30T21:59:57.958Z,102048.13
2022-08-30T22:02:24.574Z,102048.53
2022-08-30T22:04:51.198Z,102052.28
2022-08-30T22:07:17.927Z,102046.75
2022-08-30T22:09:44.615Z,102046.88
2022-08-30T22:12:11.320Z,102041.69
2022-08-30T22:14:38.480Z,102045.34
2022-08-30T22:17:05.586Z,102047.13
2022-08-30T22:19:33.903Z,102047.25
2022-08-30T22:22:01.815Z,102047.25
2022-08-30T22:24:32.262Z,102050.72
2022-08-30T22:27:01.326Z,102059.38
2022-08-30T22:29:29.393Z,102050.81
2022-08-30T22:31:56.288Z,102061.63
2022-08-30T22:34:23.229Z,102056.19
2022-08-30T22:36:49.838Z,102055.28
2022-08-30T22:39:16.548Z,102061.66
2022-08-30T22:41:44.302Z,102056.19
2022-08-30T22:44:12.047Z,102061.03
2022-08-30T22:46:40.251Z,102064.19
2022-08-30T22:49:09.464Z,102070.09
2022-08-30T22:51:37.653Z,102063.84
2022-08-30T22:54:05.838Z,102066.44
2022-08-30T22:56:33.973Z,102073.03
2022-08-30T22:59:00.923Z,102072.78
2022-08-30T23:01:34.175Z,102079.31
2022-08-30T23:04:01.239Z,102076.56
2022-08-30T23:06:32.420Z,102085.56
2022-08-30T23:08:59.791Z,102078.63
2022-08-30T23:11:26.870Z,102082.16
2022-08-30T23:13:54.348Z,102085.28
2022-08-30T23:16:22.126Z,102073.22
2022-08-30T23:18:48.848Z,102084.97
2022-08-30T23:21:22.167Z,102083.56
2022-08-30T23:24:08.867Z,102079.75
2022-08-30T23:26:54.357Z,102087.94
2022-08-30T23:29:39.364Z,102077.59
2022-08-30T23:32:24.959Z,102087.63
2022-08-30T23:35:10.139Z,102089.28
2022-08-30T23:37:55.718Z,102078.22
2022-08-30T23:40:42.216Z,102080.47
2022-08-30T23:43:28.906Z,102087.75
2022-08-30T23:46:18.883Z,102080.72
2022-08-30T23:49:06.312Z,102080.38
2022-08-30T23:51:52.275Z,102078.47
2022-08-30T23:54:37.335Z,102079.16
2022-08-30T23:57:23.790Z,102083.91
